1A6

Middlesboro-Bell County Airport

Middlesboro, Kentucky, USA
METAR K1A6 251735Z AUTO 31006KT 10SM SCT023 BKN041 OVC060 16/12 A2994 RMK AO2 T01550116
Observed Flight Rules
Apr-25 @ 17:35 UTC (17 minutes ago) Visual Flight Rules
Wind Visibility Clouds
310° at 6 knots 10 miles
  • Scattered at 2,300' AGL
  • Broken at 4,100' AGL
  • Overcast at 6,000' AGL
Temperatures Readings
Current 16°C / 61°F
Dewpoint 12°C / 54°F
Humidity 77%
Altimeter 29.94" Hg
Pressure 1014 hPa
Elevation 352
METAR K1A6 251735Z AUTO 31006KT 10SM SCT023 BKN041 OVC060 16/12 A2994 RMK AO2 T01550116
Observed Flight Rules
Apr-25 @ 17:35 UTC
(17 minutes ago)
VFR
Wind Visibility
310° at 6 knots 10 miles
Clouds
  • Scattered at 2,300' AGL
  • Broken at 4,100' AGL
  • Overcast at 6,000' AGL
Temperature Dewpoint
16°C / 61°F 12°C / 54°F
Humidity Altimeter Pressure
77% 29.94" Hg 1014 hPa